createdAt,value
2018-07-20T00:02:07.698Z,11.80
2018-07-20T00:04:36.286Z,11.87
2018-07-20T00:07:05.060Z,13.40
2018-07-20T00:09:33.627Z,12.70
2018-07-20T00:12:02.210Z,12.07
2018-07-20T00:14:30.898Z,11.50
2018-07-20T00:16:59.932Z,12.00
2018-07-20T00:19:28.548Z,11.60
2018-07-20T00:21:57.394Z,12.07
2018-07-20T00:24:25.634Z,11.33
2018-07-20T00:26:54.232Z,11.30
2018-07-20T00:29:22.814Z,12.67
2018-07-20T00:31:51.358Z,13.23
2018-07-20T00:34:19.846Z,12.53
2018-07-20T00:36:48.346Z,12.07
2018-07-20T00:39:17.440Z,11.90
2018-07-20T00:41:45.983Z,12.47
2018-07-20T00:52:45.178Z,11.28
2018-07-20T00:55:13.690Z,11.67
2018-07-20T00:57:45.201Z,10.67
2018-07-20T01:00:14.286Z,11.70
2018-07-20T01:02:42.782Z,11.50
2018-07-20T01:05:11.276Z,12.07
2018-07-20T01:07:39.810Z,11.50
2018-07-20T01:10:08.368Z,12.03
2018-07-20T01:12:37.364Z,11.60
2018-07-20T01:15:06.133Z,11.17
2018-07-20T01:17:34.632Z,12.13
2018-07-20T01:20:03.290Z,10.77
2018-07-20T01:22:32.164Z,11.20
2018-07-20T01:25:00.637Z,11.63
2018-07-20T01:27:29.140Z,12.10
2018-07-20T01:29:57.678Z,11.97
2018-07-20T01:32:27.334Z,11.40
2018-07-20T01:34:55.562Z,12.80
2018-07-20T01:37:24.146Z,11.83
2018-07-20T01:39:52.639Z,12.10
2018-07-20T01:42:21.146Z,12.33
2018-07-20T01:44:50.744Z,11.93
2018-07-20T01:47:19.360Z,12.50
2018-07-20T01:49:47.895Z,11.03
2018-07-20T01:52:17.505Z,11.90
2018-07-20T01:54:46.050Z,12.57
2018-07-20T02:15:31.841Z,12.20
2018-07-20T02:18:00.418Z,12.47
2018-07-20T02:20:28.906Z,11.40
2018-07-20T02:22:57.422Z,11.53
2018-07-20T02:25:25.958Z,11.70
2018-07-20T02:27:54.563Z,11.90
2018-07-20T02:30:23.078Z,14.43
2018-07-20T02:32:52.278Z,11.67
2018-07-20T02:35:20.802Z,11.35
2018-07-20T02:37:49.318Z,11.63
2018-07-20T02:40:18.854Z,11.93
2018-07-20T02:42:47.359Z,11.20
2018-07-20T02:45:18.209Z,12.78
2018-07-20T02:47:46.770Z,13.10
2018-07-20T03:08:48.777Z,12.45
2018-07-20T03:11:17.494Z,12.80
2018-07-20T03:13:46.039Z,12.67
2018-07-20T03:23:56.008Z,13.08
2018-07-20T03:26:29.609Z,14.50
2018-07-20T03:28:58.165Z,14.17
2018-07-20T03:31:26.666Z,14.75
2018-07-20T03:33:55.158Z,14.93
2018-07-20T03:36:23.713Z,14.90
2018-07-20T03:38:52.209Z,14.00
2018-07-20T03:41:20.716Z,14.30
2018-07-20T03:43:49.547Z,14.70
2018-07-20T03:46:19.329Z,15.60
2018-07-20T03:48:47.818Z,15.20
2018-07-20T03:51:16.552Z,15.43
2018-07-20T03:53:45.118Z,15.67
2018-07-20T03:56:13.623Z,14.80
2018-07-20T03:58:42.148Z,14.60
2018-07-20T04:01:10.674Z,14.28
2018-07-20T04:03:39.166Z,13.97
2018-07-20T04:06:08.360Z,16.60
2018-07-20T04:08:36.894Z,17.60
2018-07-20T04:11:05.369Z,14.93
2018-07-20T04:13:33.641Z,15.78
2018-07-20T04:16:02.130Z,14.93
2018-07-20T04:18:30.631Z,14.80
2018-07-20T04:20:59.149Z,14.43
2018-07-20T04:23:27.622Z,13.70
2018-07-20T04:25:56.102Z,14.70
2018-07-20T04:28:24.990Z,15.23
2018-07-20T04:30:53.533Z,14.30
2018-07-20T04:33:22.094Z,14.90
2018-07-20T04:35:50.695Z,15.68
2018-07-20T04:38:19.218Z,13.77
2018-07-20T04:40:47.901Z,13.53
2018-07-20T04:43:17.495Z,14.80
2018-07-20T04:45:46.017Z,14.70
2018-07-20T04:48:16.305Z,14.33
2018-07-20T04:50:45.335Z,14.03
2018-07-20T04:59:32.942Z,12.25
2018-07-20T05:02:01.459Z,13.80
2018-07-20T05:04:29.994Z,13.68
2018-07-20T05:06:59.142Z,14.83
2018-07-20T05:09:27.723Z,13.80
2018-07-20T05:11:59.190Z,14.03
2018-07-20T05:14:28.354Z,13.93
2018-07-20T05:16:57.017Z,13.10
2018-07-20T05:19:26.651Z,14.57
2018-07-20T05:21:55.404Z,14.03
2018-07-20T05:24:23.905Z,15.17
2018-07-20T05:26:52.453Z,14.60
2018-07-20T05:29:21.073Z,15.18
2018-07-20T05:31:49.617Z,12.90
2018-07-20T05:34:18.131Z,12.93
2018-07-20T05:36:46.342Z,12.60
2018-07-20T05:51:42.173Z,11.10
2018-07-20T05:54:10.837Z,11.10
2018-07-20T05:56:39.510Z,10.90
2018-07-20T05:59:08.025Z,12.03
2018-07-20T06:01:36.561Z,9.83
2018-07-20T06:04:05.228Z,10.37
2018-07-20T06:06:33.735Z,10.55
2018-07-20T06:09:03.008Z,9.63
2018-07-20T06:11:31.181Z,9.53
2018-07-20T06:13:59.690Z,10.35
2018-07-20T06:16:28.244Z,8.80
2018-07-20T06:18:56.476Z,9.25
2018-07-20T06:21:25.093Z,8.70
2018-07-20T06:23:53.666Z,7.80
2018-07-20T06:26:28.319Z,8.23
2018-07-20T06:28:57.422Z,8.30
2018-07-20T06:31:25.911Z,8.97
2018-07-20T06:33:54.397Z,8.58
2018-07-20T06:36:22.894Z,7.73
2018-07-20T06:38:51.626Z,7.33
2018-07-20T06:41:20.947Z,7.77
2018-07-20T06:43:49.970Z,7.67
2018-07-20T06:46:18.506Z,7.22
2018-07-20T06:48:47.049Z,7.97
2018-07-20T07:00:42.087Z,7.57
2018-07-20T07:03:10.570Z,6.10
2018-07-20T07:05:39.029Z,6.13
2018-07-20T07:08:07.570Z,5.67
2018-07-20T07:10:35.768Z,7.10
2018-07-20T07:13:04.001Z,6.03
2018-07-20T07:15:32.555Z,6.87
2018-07-20T07:18:01.202Z,7.60
2018-07-20T07:20:29.701Z,6.83
2018-07-20T07:22:58.677Z,5.77
2018-07-20T07:25:27.210Z,7.10
2018-07-20T07:27:55.728Z,6.83
2018-07-20T07:30:24.238Z,6.07
2018-07-20T07:32:52.736Z,5.80
2018-07-20T07:35:21.237Z,5.97
2018-07-20T07:37:49.756Z,5.80
2018-07-20T07:40:18.774Z,5.63
2018-07-20T07:42:48.230Z,5.40
2018-07-20T07:45:18.104Z,4.72
2018-07-20T07:47:46.577Z,4.40
2018-07-20T08:02:47.150Z,3.90
2018-07-20T08:05:17.033Z,4.27
2018-07-20T08:07:52.031Z,3.40
2018-07-20T08:10:20.705Z,4.03
2018-07-20T08:12:49.318Z,4.20
2018-07-20T08:15:18.812Z,4.00
2018-07-20T08:17:47.345Z,4.20
2018-07-20T08:20:17.499Z,3.70
2018-07-20T08:22:46.859Z,3.53
2018-07-20T08:31:23.582Z,3.75
2018-07-20T08:33:51.769Z,2.73
2018-07-20T08:36:20.298Z,3.67
2018-07-20T08:38:48.810Z,2.97
2018-07-20T08:41:17.630Z,3.00
2018-07-20T08:43:46.086Z,3.00
2018-07-20T08:46:15.613Z,2.90
2018-07-20T08:48:44.186Z,2.70
2018-07-20T08:51:12.710Z,3.00
2018-07-20T08:53:41.789Z,2.80
2018-07-20T08:56:10.320Z,2.70
2018-07-20T08:58:38.818Z,2.60
2018-07-20T09:01:08.572Z,2.40
2018-07-20T09:03:38.053Z,2.63
2018-07-20T09:06:06.511Z,2.35
2018-07-20T09:08:35.065Z,2.67
2018-07-20T09:11:03.710Z,2.72
2018-07-20T09:13:32.377Z,2.60
2018-07-20T09:16:01.311Z,2.00
2018-07-20T09:18:29.824Z,2.33
2018-07-20T09:20:58.585Z,2.70
2018-07-20T09:23:27.194Z,2.80
2018-07-20T09:25:55.357Z,2.60
2018-07-20T09:28:25.657Z,2.80
2018-07-20T09:30:54.322Z,2.70
2018-07-20T09:33:22.822Z,3.07
2018-07-20T09:35:51.348Z,3.33
2018-07-20T09:38:20.097Z,3.27
2018-07-20T09:40:48.633Z,3.20
2018-07-20T09:43:17.446Z,3.93
2018-07-20T09:45:45.976Z,3.90
2018-07-20T09:48:15.590Z,3.80
2018-07-20T09:50:44.850Z,3.70
2018-07-20T09:53:13.467Z,3.03
2018-07-20T09:55:41.749Z,3.27
2018-07-20T09:58:10.271Z,3.13
2018-07-20T10:00:46.798Z,2.97
2018-07-20T10:03:17.326Z,3.47
2018-07-20T10:05:46.210Z,3.30
2018-07-20T10:08:18.988Z,3.30
2018-07-20T10:10:47.670Z,3.47
2018-07-20T10:13:17.946Z,3.02
2018-07-20T10:15:46.474Z,3.43
2018-07-20T10:37:17.818Z,3.90
2018-07-20T10:39:46.486Z,4.83
2018-07-20T10:42:17.286Z,4.70
2018-07-20T10:44:45.817Z,4.00
2018-07-20T11:09:49.560Z,5.23
2018-07-20T11:12:18.085Z,5.03
2018-07-20T11:14:46.654Z,4.50
2018-07-20T11:29:43.177Z,5.27
2018-07-20T11:32:14.682Z,5.23
2018-07-20T11:34:43.965Z,4.53
2018-07-20T11:37:13.666Z,4.47
2018-07-20T11:39:42.197Z,4.67
2018-07-20T11:42:10.754Z,5.33
2018-07-20T11:44:39.462Z,4.80
2018-07-20T11:47:07.829Z,4.60
2018-07-20T11:49:36.359Z,4.73
2018-07-20T11:52:04.941Z,4.87
2018-07-20T11:54:33.420Z,4.80
2018-07-20T11:57:01.628Z,5.27
2018-07-20T11:59:30.717Z,5.10
2018-07-20T12:01:59.283Z,5.43
2018-07-20T12:04:27.754Z,5.77
2018-07-20T12:06:56.965Z,5.37
2018-07-20T12:09:25.571Z,5.10
2018-07-20T12:11:54.943Z,5.37
2018-07-20T12:14:23.538Z,5.53
2018-07-20T12:16:53.505Z,4.83
2018-07-20T12:19:22.018Z,5.47
2018-07-20T12:21:50.521Z,5.40
2018-07-20T12:24:19.023Z,5.40
2018-07-20T12:26:47.635Z,5.25
2018-07-20T12:29:17.715Z,5.22
2018-07-20T12:31:46.597Z,4.80
2018-07-20T12:53:12.911Z,5.08
2018-07-20T12:55:41.975Z,5.50
2018-07-20T12:58:10.543Z,5.67
2018-07-20T13:00:39.207Z,5.50
2018-07-20T13:03:07.731Z,5.07
2018-07-20T13:05:36.486Z,5.77
2018-07-20T13:08:06.802Z,5.63
2018-07-20T13:10:35.388Z,5.10
2018-07-20T13:13:05.075Z,5.93
2018-07-20T13:15:35.887Z,5.23
2018-07-20T13:18:04.795Z,5.87
2018-07-20T13:20:33.613Z,5.45
2018-07-20T13:23:02.556Z,5.37
2018-07-20T13:25:31.435Z,6.07
2018-07-20T13:28:00.095Z,5.40
2018-07-20T13:30:29.693Z,4.93
2018-07-20T13:32:58.217Z,5.40
2018-07-20T13:35:26.802Z,5.23
2018-07-20T13:37:56.067Z,6.30
2018-07-20T13:40:24.573Z,6.00
2018-07-20T13:42:53.692Z,5.00
2018-07-20T13:45:22.982Z,5.20
2018-07-20T13:47:51.575Z,5.07
2018-07-20T13:50:20.109Z,5.33
2018-07-20T13:52:48.683Z,5.60
2018-07-20T13:55:17.958Z,5.27
2018-07-20T13:57:46.521Z,5.27
2018-07-20T14:00:16.372Z,5.30
2018-07-20T14:02:44.943Z,5.63
2018-07-20T14:05:13.562Z,5.53
2018-07-20T14:07:42.318Z,5.33
2018-07-20T14:10:12.919Z,5.03
2018-07-20T14:12:41.615Z,4.90
2018-07-20T14:15:11.963Z,5.50
2018-07-20T14:17:40.670Z,5.33
2018-07-20T14:20:09.203Z,5.33
2018-07-20T14:22:37.956Z,5.60
2018-07-20T14:25:06.522Z,5.30
2018-07-20T14:27:38.511Z,5.73
2018-07-20T14:30:07.122Z,5.60
2018-07-20T14:32:40.277Z,5.47
2018-07-20T14:35:08.937Z,6.70
2018-07-20T14:37:37.478Z,5.72
2018-07-20T14:40:07.181Z,5.50
2018-07-20T14:42:35.966Z,5.80
2018-07-20T14:45:04.800Z,6.00
2018-07-20T14:47:33.286Z,6.30
2018-07-20T14:50:01.871Z,5.57
2018-07-20T14:52:30.414Z,5.90
2018-07-20T14:54:58.948Z,5.93
2018-07-20T14:57:27.498Z,6.10
2018-07-20T14:59:56.040Z,6.50
2018-07-20T15:02:25.402Z,5.78
2018-07-20T15:04:54.424Z,5.80
2018-07-20T15:07:22.929Z,5.27
2018-07-20T15:09:51.425Z,6.43
2018-07-20T15:12:19.683Z,5.30
2018-07-20T15:14:48.346Z,5.60
2018-07-20T15:17:19.341Z,6.05
2018-07-20T15:19:47.994Z,5.10
2018-07-20T15:22:16.590Z,5.45
2018-07-20T15:24:45.565Z,5.20
2018-07-20T15:27:16.017Z,5.87
2018-07-20T15:29:44.882Z,5.35
2018-07-20T15:32:13.465Z,5.30
2018-07-20T15:34:42.352Z,5.40
2018-07-20T15:37:10.630Z,5.60
2018-07-20T15:39:43.066Z,4.90
2018-07-20T15:42:11.919Z,5.60
2018-07-20T15:44:40.468Z,5.57
2018-07-20T15:47:12.438Z,5.33
2018-07-20T15:49:42.231Z,5.90
2018-07-20T15:54:39.853Z,5.27
2018-07-20T15:57:08.722Z,5.70
2018-07-20T15:59:37.618Z,5.90
2018-07-20T16:02:06.559Z,6.13
2018-07-20T16:04:36.104Z,5.67
2018-07-20T16:07:04.806Z,6.00
2018-07-20T16:09:33.402Z,5.23
2018-07-20T16:12:04.940Z,5.90
2018-07-20T16:14:33.478Z,5.93
2018-07-20T16:17:02.110Z,6.47
2018-07-20T16:19:31.570Z,5.80
2018-07-20T16:22:01.142Z,6.00
2018-07-20T16:24:29.874Z,6.10
2018-07-20T16:26:58.883Z,5.95
2018-07-20T16:29:27.423Z,5.43
2018-07-20T16:31:56.127Z,7.10
2018-07-20T16:34:25.026Z,7.20
2018-07-20T16:36:53.637Z,6.30
2018-07-20T16:39:23.589Z,6.13
2018-07-20T16:41:52.130Z,9.90
2018-07-20T16:44:21.077Z,9.00
2018-07-20T16:46:49.702Z,8.00
2018-07-20T16:49:18.378Z,8.30
2018-07-20T16:51:46.654Z,8.60
2018-07-20T16:54:15.939Z,7.60
2018-07-20T16:56:44.820Z,7.00
2018-07-20T16:59:13.669Z,6.80
2018-07-20T17:01:43.125Z,6.07
2018-07-20T17:04:11.713Z,5.70
2018-07-20T17:06:40.294Z,6.10
2018-07-20T17:09:14.211Z,5.87
2018-07-20T17:11:42.802Z,5.70
2018-07-20T17:14:11.463Z,5.20
2018-07-20T17:16:40.397Z,5.80
2018-07-20T17:19:09.389Z,5.87
2018-07-20T17:21:38.759Z,5.53
2018-07-20T17:24:07.488Z,5.63
2018-07-20T17:26:36.201Z,6.03
2018-07-20T17:29:07.024Z,6.47
2018-07-20T17:31:37.219Z,6.00
2018-07-20T17:34:05.746Z,6.07
2018-07-20T17:36:34.279Z,6.65
2018-07-20T17:39:03.574Z,6.37
2018-07-20T17:41:31.804Z,6.63
2018-07-20T17:44:00.333Z,6.50
2018-07-20T17:46:28.645Z,7.33
2018-07-20T17:48:57.167Z,6.40
2018-07-20T17:51:25.767Z,6.42
2018-07-20T17:53:54.003Z,7.07
2018-07-20T17:56:22.889Z,7.13
2018-07-20T17:58:51.693Z,7.53
2018-07-20T18:01:20.525Z,7.10
2018-07-20T18:03:49.103Z,7.23
2018-07-20T18:06:17.607Z,7.33
2018-07-20T18:08:48.227Z,7.27
2018-07-20T18:11:17.518Z,7.40
2018-07-20T18:13:45.681Z,7.03
2018-07-20T18:38:08.565Z,9.95
2018-07-20T18:40:38.903Z,9.23
2018-07-20T18:43:07.487Z,8.77
2018-07-20T18:45:35.703Z,9.77
2018-07-20T18:48:04.512Z,9.90
2018-07-20T18:50:33.090Z,9.43
2018-07-20T18:53:08.293Z,9.23
2018-07-20T18:55:36.930Z,9.73
2018-07-20T18:58:06.826Z,14.80
2018-07-20T19:00:35.578Z,13.77
2018-07-20T19:03:04.286Z,11.73
2018-07-20T19:17:03.995Z,9.33
2018-07-20T19:19:32.565Z,10.23
2018-07-20T19:22:01.124Z,9.93
2018-07-20T19:24:29.645Z,9.30
2018-07-20T19:26:58.689Z,9.30
2018-07-20T19:29:26.901Z,10.30
2018-07-20T19:31:56.261Z,9.97
2018-07-20T19:34:24.934Z,10.43
2018-07-20T19:36:54.067Z,10.80
2018-07-20T19:39:22.638Z,10.87
2018-07-20T19:41:51.186Z,10.70
2018-07-20T19:44:23.006Z,13.53
2018-07-20T19:46:52.038Z,15.53
2018-07-20T19:49:21.381Z,14.43
2018-07-20T19:51:50.077Z,19.27
2018-07-20T19:54:18.666Z,22.43
2018-07-20T19:56:47.254Z,23.83
2018-07-20T19:59:17.671Z,22.75
2018-07-20T20:01:46.837Z,21.73
2018-07-20T20:11:25.873Z,23.95
2018-07-20T20:13:54.592Z,19.73
2018-07-20T20:16:23.105Z,18.63
2018-07-20T20:18:51.618Z,16.60
2018-07-20T20:21:20.202Z,14.40
2018-07-20T20:23:48.753Z,13.27
2018-07-20T20:26:17.201Z,12.30
2018-07-20T20:28:50.374Z,12.53
2018-07-20T20:31:19.569Z,11.47
2018-07-20T20:33:48.170Z,12.43
2018-07-20T20:36:17.555Z,13.90
2018-07-20T20:38:46.148Z,12.97
2018-07-20T20:53:45.910Z,12.40
2018-07-20T20:56:16.731Z,12.10
2018-07-20T20:58:45.434Z,10.73
2018-07-20T21:13:41.026Z,13.17
2018-07-20T21:16:09.605Z,12.90
2018-07-20T21:18:38.117Z,12.67
2018-07-20T21:21:06.665Z,11.30
2018-07-20T21:23:35.315Z,11.67
2018-07-20T21:26:04.177Z,14.67
2018-07-20T21:28:32.807Z,13.88
2018-07-20T21:31:02.104Z,12.97
2018-07-20T21:33:35.192Z,14.10
2018-07-20T21:36:03.970Z,14.93
2018-07-20T21:38:32.531Z,12.63
2018-07-20T21:41:01.071Z,13.70
2018-07-20T21:43:29.766Z,13.87
2018-07-20T21:45:58.258Z,13.57
2018-07-20T21:48:26.874Z,16.90
2018-07-20T21:50:55.822Z,17.00
2018-07-20T21:53:24.398Z,17.37
2018-07-20T21:55:52.986Z,18.07
2018-07-20T21:58:21.783Z,17.20
2018-07-20T22:00:50.455Z,15.47
2018-07-20T22:03:18.965Z,16.40
2018-07-20T22:05:47.169Z,15.13
2018-07-20T22:08:16.772Z,15.50
2018-07-20T22:10:45.268Z,15.00
2018-07-20T22:13:14.827Z,17.87
2018-07-20T22:15:43.489Z,17.00
2018-07-20T22:18:12.005Z,15.07
2018-07-20T22:20:40.537Z,16.27
2018-07-20T22:23:09.149Z,16.90
2018-07-20T22:25:38.082Z,17.43
2018-07-20T22:28:06.723Z,17.63
2018-07-20T22:30:35.266Z,16.97
2018-07-20T22:33:04.750Z,17.03
2018-07-20T22:35:34.295Z,19.10
2018-07-20T22:38:02.946Z,17.50
2018-07-20T22:40:31.552Z,17.12
2018-07-20T22:43:00.196Z,15.87
2018-07-20T22:45:28.832Z,16.00
2018-07-20T22:47:57.383Z,14.40
2018-07-20T22:50:25.950Z,14.23
2018-07-20T22:52:54.489Z,13.67
